createdAt,value
2022-09-20T00:00:48.591Z,10.56
2022-09-20T00:03:16.915Z,10.49
2022-09-20T00:05:45.897Z,10.46
2022-09-20T00:08:17.393Z,10.39
2022-09-20T00:10:44.053Z,10.38
2022-09-20T00:13:13.632Z,10.34
2022-09-20T00:15:45.803Z,10.33
2022-09-20T00:18:13.038Z,10.34
2022-09-20T00:20:47.748Z,10.31
2022-09-20T00:23:16.582Z,10.22
2022-09-20T00:25:43.604Z,10.22
2022-09-20T00:28:11.383Z,10.27
2022-09-20T00:30:39.031Z,10.26
2022-09-20T00:33:06.007Z,10.24
2022-09-20T00:35:33.207Z,10.19
2022-09-20T00:37:59.841Z,10.22
2022-09-20T00:40:29.148Z,10.22
2022-09-20T00:42:55.952Z,10.22
2022-09-20T00:45:28.468Z,10.19
2022-09-20T00:48:12.403Z,10.23
2022-09-20T00:50:53.378Z,10.25
2022-09-20T00:53:26.394Z,10.20
2022-09-20T00:56:01.563Z,10.13
2022-09-20T00:58:32.256Z,10.07
2022-09-20T01:00:59.893Z,10.07
2022-09-20T01:03:31.502Z,10.09
2022-09-20T01:06:02.036Z,10.08
2022-09-20T01:08:29.029Z,10.10
2022-09-20T01:10:55.824Z,10.16
2022-09-20T01:13:22.644Z,10.09
2022-09-20T01:15:50.572Z,10.06
2022-09-20T01:18:20.216Z,9.98
2022-09-20T01:20:48.511Z,9.96
2022-09-20T01:23:17.705Z,10.00
2022-09-20T01:26:03.158Z,9.95
2022-09-20T01:28:30.329Z,9.97
2022-09-20T01:31:15.268Z,10.00
2022-09-20T01:34:00.945Z,10.01
2022-09-20T01:36:48.515Z,9.99
2022-09-20T01:39:40.483Z,9.98
2022-09-20T01:42:10.959Z,9.96
2022-09-20T01:44:55.665Z,9.97
2022-09-20T01:47:34.155Z,9.96
2022-09-20T01:50:06.628Z,9.89
2022-09-20T01:52:42.313Z,9.85
2022-09-20T01:55:46.404Z,9.76
2022-09-20T01:58:44.106Z,9.66
2022-09-20T02:01:41.319Z,9.55
2022-09-20T02:04:26.662Z,9.47
2022-09-20T02:07:17.350Z,9.36
2022-09-20T02:10:05.429Z,9.33
2022-09-20T02:12:45.591Z,9.31
2022-09-20T02:15:46.201Z,9.35
2022-09-20T02:18:46.978Z,9.33
2022-09-20T02:21:38.047Z,9.39
2022-09-20T02:24:16.666Z,9.41
2022-09-20T02:27:14.172Z,9.35
2022-09-20T02:30:05.676Z,9.36
2022-09-20T02:32:51.897Z,9.33
2022-09-20T02:36:00.036Z,9.34
2022-09-20T02:39:02.177Z,9.32
2022-09-20T02:41:40.746Z,9.22
2022-09-20T02:44:30.019Z,9.10
2022-09-20T02:47:32.811Z,9.04
2022-09-20T02:50:02.033Z,8.97
2022-09-20T02:52:46.640Z,8.93
2022-09-20T02:55:41.326Z,8.82
2022-09-20T02:58:26.990Z,8.73
2022-09-20T03:01:24.412Z,8.66
2022-09-20T03:04:14.640Z,8.55
2022-09-20T03:06:59.021Z,8.42
2022-09-20T03:09:51.765Z,8.42
2022-09-20T03:12:44.931Z,8.32
2022-09-20T03:15:29.843Z,8.30
2022-09-20T03:18:52.204Z,8.25
2022-09-20T03:21:27.870Z,8.25
2022-09-20T03:24:10.805Z,8.18
2022-09-20T03:27:05.895Z,8.14
2022-09-20T03:29:59.527Z,8.11
2022-09-20T03:32:52.714Z,8.04
2022-09-20T03:35:38.012Z,7.98
2022-09-20T03:38:10.282Z,7.92
2022-09-20T03:40:52.316Z,7.90
2022-09-20T03:43:55.747Z,7.87
2022-09-20T03:46:29.730Z,7.85
2022-09-20T03:49:33.364Z,7.83
2022-09-20T03:52:20.645Z,7.76
2022-09-20T03:55:08.669Z,7.67
2022-09-20T03:57:39.102Z,7.60
2022-09-20T04:00:14.985Z,7.59
2022-09-20T04:02:41.727Z,7.58
2022-09-20T04:05:18.362Z,7.56
2022-09-20T04:08:19.965Z,7.51
2022-09-20T04:11:08.283Z,7.46
2022-09-20T04:13:40.992Z,7.40
2022-09-20T04:16:34.815Z,7.44
2022-09-20T04:19:18.494Z,7.45
2022-09-20T04:21:57.731Z,7.48
2022-09-20T04:24:30.563Z,7.47
2022-09-20T04:27:03.857Z,7.44
2022-09-20T04:29:53.150Z,7.44
2022-09-20T04:32:28.859Z,7.30
2022-09-20T04:35:48.120Z,7.36
2022-09-20T04:38:19.508Z,7.33
2022-09-20T04:41:12.078Z,7.30
2022-09-20T04:44:17.507Z,7.30
2022-09-20T04:47:21.673Z,7.28
2022-09-20T04:50:16.272Z,7.30
2022-09-20T04:53:21.758Z,7.27
2022-09-20T04:56:02.026Z,7.23
2022-09-20T04:58:47.271Z,7.23
2022-09-20T05:01:19.845Z,7.23
2022-09-20T05:04:23.974Z,7.24
2022-09-20T05:07:11.988Z,7.27
2022-09-20T05:10:13.707Z,7.25
2022-09-20T05:13:05.394Z,7.22
2022-09-20T05:16:04.646Z,7.23
2022-09-20T05:19:02.315Z,7.21
2022-09-20T05:21:47.923Z,7.25
2022-09-20T05:24:33.013Z,7.28
2022-09-20T05:27:34.001Z,7.26
2022-09-20T05:30:26.766Z,7.27
2022-09-20T05:33:20.618Z,7.29
2022-09-20T05:36:34.535Z,7.31
2022-09-20T05:39:34.335Z,7.34
2022-09-20T05:42:09.954Z,7.42
2022-09-20T05:45:00.663Z,7.47
2022-09-20T05:47:41.044Z,7.56
2022-09-20T05:50:49.595Z,7.65
2022-09-20T05:53:34.913Z,7.69
2022-09-20T05:56:46.907Z,7.70
2022-09-20T05:59:28.839Z,7.68
2022-09-20T06:02:10.739Z,7.70
2022-09-20T06:04:52.390Z,7.69
2022-09-20T06:07:39.455Z,7.60
2022-09-20T06:10:24.769Z,7.67
2022-09-20T06:13:22.242Z,7.67
2022-09-20T06:15:59.285Z,7.64
2022-09-20T06:18:40.648Z,7.67
2022-09-20T06:21:36.079Z,7.72
2022-09-20T06:24:19.933Z,7.81
2022-09-20T06:26:49.647Z,7.88
2022-09-20T06:29:20.152Z,7.92
2022-09-20T06:31:46.858Z,7.96
2022-09-20T06:34:15.674Z,8.07
2022-09-20T06:37:13.249Z,8.09
2022-09-20T06:40:02.451Z,8.10
2022-09-20T06:42:29.766Z,8.13
2022-09-20T06:44:56.590Z,8.13
2022-09-20T06:47:23.422Z,8.13
2022-09-20T06:49:50.547Z,8.17
2022-09-20T06:52:19.131Z,8.24
2022-09-20T06:54:48.338Z,8.25
2022-09-20T06:57:18.406Z,8.29
2022-09-20T06:59:45.814Z,8.38
2022-09-20T07:02:12.474Z,8.50
2022-09-20T07:04:40.149Z,8.62
2022-09-20T07:07:09.768Z,8.70
2022-09-20T07:09:36.591Z,8.81
2022-09-20T07:12:03.605Z,8.90
2022-09-20T07:14:30.238Z,9.03
2022-09-20T07:16:56.901Z,9.18
2022-09-20T07:19:23.559Z,9.29
2022-09-20T07:21:50.166Z,9.52
2022-09-20T07:24:16.881Z,9.72
2022-09-20T07:26:57.549Z,9.96
2022-09-20T07:29:24.514Z,10.14
2022-09-20T07:31:51.366Z,10.47
2022-09-20T07:34:20.842Z,10.64
2022-09-20T07:36:48.413Z,11.04
2022-09-20T07:39:16.569Z,11.25
2022-09-20T07:41:46.886Z,11.57
2022-09-20T07:44:24.475Z,11.73
2022-09-20T07:46:52.817Z,11.99
2022-09-20T07:49:20.219Z,12.12
2022-09-20T07:51:46.948Z,12.18
2022-09-20T07:54:14.086Z,12.32
2022-09-20T07:56:41.327Z,12.37
2022-09-20T07:59:08.190Z,12.33
2022-09-20T08:01:35.133Z,12.21
2022-09-20T08:04:02.160Z,12.20
2022-09-20T08:06:28.850Z,12.24
2022-09-20T08:08:55.741Z,12.24
2022-09-20T08:11:29.628Z,12.42
2022-09-20T08:14:08.356Z,12.69
2022-09-20T08:16:45.211Z,12.72
2022-09-20T08:19:17.756Z,12.76
2022-09-20T08:21:44.896Z,12.99
2022-09-20T08:24:12.229Z,13.23
2022-09-20T08:26:39.275Z,13.31
2022-09-20T08:29:06.673Z,13.33
2022-09-20T08:31:36.855Z,13.54
2022-09-20T08:34:06.908Z,13.57
2022-09-20T08:36:36.901Z,13.58
2022-09-20T08:42:02.646Z,13.73
2022-09-20T08:44:36.779Z,13.73
2022-09-20T08:47:25.272Z,13.74
2022-09-20T08:49:57.784Z,13.80
2022-09-20T08:52:37.008Z,13.81
2022-09-20T08:55:23.014Z,13.74
2022-09-20T08:57:55.624Z,13.75
2022-09-20T09:00:26.149Z,13.83
2022-09-20T09:02:56.476Z,13.84
2022-09-20T09:05:29.054Z,14.13
2022-09-20T09:07:55.758Z,14.37
2022-09-20T09:10:22.675Z,14.43
2022-09-20T09:12:50.754Z,14.59
2022-09-20T09:15:32.824Z,14.62
2022-09-20T09:17:59.788Z,14.57
2022-09-20T09:20:26.856Z,14.68
2022-09-20T09:23:02.776Z,14.73
2022-09-20T09:25:38.039Z,14.68
2022-09-20T09:28:14.233Z,14.94
2022-09-20T09:30:44.138Z,14.95
2022-09-20T09:33:24.189Z,14.83
2022-09-20T09:36:10.765Z,15.04
2022-09-20T09:38:40.265Z,15.43
2022-09-20T09:41:29.917Z,15.52
2022-09-20T09:44:10.234Z,15.50
2022-09-20T09:46:42.195Z,15.82
2022-09-20T09:49:21.050Z,15.99
2022-09-20T09:52:01.820Z,15.89
2022-09-20T09:54:36.507Z,15.98
2022-09-20T09:57:22.234Z,16.53
2022-09-20T09:59:58.024Z,16.93
2022-09-20T10:02:58.654Z,17.32
2022-09-20T10:05:33.495Z,18.03
2022-09-20T10:08:18.437Z,18.21
2022-09-20T10:11:07.292Z,18.52
2022-09-20T10:13:40.434Z,18.50
2022-09-20T10:16:29.373Z,18.32
2022-09-20T10:19:37.249Z,17.73
2022-09-20T10:23:24.152Z,17.54
2022-09-20T10:25:50.837Z,17.32
2022-09-20T10:28:48.484Z,17.24
2022-09-20T10:31:39.354Z,17.83
2022-09-20T10:34:36.807Z,17.92
2022-09-20T10:37:11.951Z,17.80
2022-09-20T10:39:41.321Z,17.54
2022-09-20T10:42:37.039Z,18.33
2022-09-20T10:46:08.334Z,19.61
2022-09-20T10:48:52.485Z,19.98
2022-09-20T10:51:25.891Z,20.52
2022-09-20T10:54:10.277Z,20.15
2022-09-20T10:56:40.629Z,20.90
2022-09-20T10:59:42.489Z,21.68
2022-09-20T11:02:22.009Z,21.94
2022-09-20T11:04:54.571Z,22.06
2022-09-20T11:07:48.840Z,21.99
2022-09-20T11:10:36.199Z,21.93
2022-09-20T11:13:11.017Z,21.17
2022-09-20T11:15:51.230Z,20.80
2022-09-20T11:18:26.537Z,21.38
2022-09-20T11:21:01.195Z,22.23
2022-09-20T11:23:38.070Z,22.63
2022-09-20T11:26:13.207Z,22.40
2022-09-20T11:28:55.217Z,22.91
2022-09-20T11:31:36.392Z,22.64
2022-09-20T11:34:21.243Z,23.29
2022-09-20T11:36:58.934Z,23.76
2022-09-20T11:39:42.604Z,23.87
2022-09-20T11:42:16.494Z,23.92
2022-09-20T11:44:43.316Z,23.93
2022-09-20T11:47:53.260Z,24.60
2022-09-20T11:50:45.387Z,23.42
2022-09-20T11:53:39.809Z,21.13
2022-09-20T11:56:28.519Z,20.74
2022-09-20T11:58:59.823Z,21.18
2022-09-20T12:01:32.078Z,21.57
2022-09-20T12:04:36.420Z,22.43
2022-09-20T12:07:18.652Z,22.73
2022-09-20T12:09:54.426Z,23.06
2022-09-20T12:12:36.539Z,23.04
2022-09-20T12:15:08.055Z,21.68
2022-09-20T12:17:46.833Z,22.33
2022-09-20T12:20:34.908Z,21.59
2022-09-20T12:23:40.304Z,20.64
2022-09-20T12:26:08.515Z,19.44
2022-09-20T12:28:39.685Z,19.11
2022-09-20T12:31:32.146Z,19.12
2022-09-20T12:34:10.806Z,20.56
2022-09-20T12:36:40.492Z,22.08
2022-09-20T12:39:17.602Z,22.12
2022-09-20T12:41:51.914Z,20.89
2022-09-20T12:44:35.519Z,19.80
2022-09-20T12:47:16.114Z,19.61
2022-09-20T12:50:04.458Z,19.68
2022-09-20T12:52:55.683Z,19.56
2022-09-20T12:55:46.080Z,19.60
2022-09-20T12:58:16.614Z,19.72
2022-09-20T13:00:47.751Z,19.97
2022-09-20T13:03:29.720Z,20.11
2022-09-20T13:06:06.066Z,20.06
2022-09-20T13:09:10.598Z,20.24
2022-09-20T13:11:57.051Z,19.71
2022-09-20T13:14:32.752Z,19.69
2022-09-20T13:17:37.298Z,19.96
2022-09-20T13:20:04.757Z,19.87
2022-09-20T13:22:43.533Z,19.63
2022-09-20T13:25:15.873Z,19.77
2022-09-20T13:28:10.458Z,19.66
2022-09-20T13:30:37.492Z,19.64
2022-09-20T13:33:24.828Z,19.85
2022-09-20T13:35:54.724Z,19.54
2022-09-20T13:38:25.090Z,18.95
2022-09-20T13:40:54.119Z,18.06
2022-09-20T13:43:31.424Z,17.48
2022-09-20T13:46:08.670Z,17.07
2022-09-20T13:48:36.149Z,16.86
2022-09-20T13:51:03.386Z,16.59
2022-09-20T13:53:42.100Z,16.45
2022-09-20T13:56:19.890Z,16.46
2022-09-20T13:58:46.703Z,16.36
2022-09-20T14:01:25.164Z,16.26
2022-09-20T14:03:53.519Z,16.38
2022-09-20T14:06:28.283Z,16.76
2022-09-20T14:08:57.430Z,17.55
2022-09-20T14:11:28.047Z,18.44
2022-09-20T14:13:58.087Z,17.96
2022-09-20T14:16:31.133Z,17.59
2022-09-20T14:18:59.249Z,17.15
2022-09-20T14:21:28.551Z,16.64
2022-09-20T14:24:06.491Z,16.37
2022-09-20T14:26:38.776Z,16.01
2022-09-20T14:29:50.568Z,15.81
2022-09-20T14:32:17.294Z,15.66
2022-09-20T14:35:00.929Z,15.54
2022-09-20T14:37:44.850Z,15.41
2022-09-20T14:40:25.437Z,15.47
2022-09-20T14:42:56.325Z,15.32
2022-09-20T14:45:44.511Z,15.21
2022-09-20T14:48:12.261Z,15.22
2022-09-20T14:50:44.463Z,15.22
2022-09-20T14:53:11.044Z,15.14
2022-09-20T14:56:08.838Z,15.38
2022-09-20T14:59:01.424Z,15.53
2022-09-20T15:01:28.472Z,15.95
2022-09-20T15:03:57.336Z,16.57
2022-09-20T15:06:25.134Z,16.94
2022-09-20T15:08:52.385Z,16.91
2022-09-20T15:11:23.524Z,17.67
2022-09-20T15:13:50.488Z,17.71
2022-09-20T15:16:20.216Z,17.73
2022-09-20T15:18:46.947Z,17.50
2022-09-20T15:21:13.863Z,17.81
2022-09-20T15:23:41.370Z,18.26
2022-09-20T15:26:10.731Z,18.60
2022-09-20T15:28:37.610Z,19.07
2022-09-20T15:31:04.706Z,20.00
2022-09-20T15:33:32.625Z,21.32
2022-09-20T15:36:02.022Z,22.01
2022-09-20T15:38:28.873Z,21.99
2022-09-20T15:40:55.680Z,22.20
2022-09-20T15:43:26.339Z,21.52
2022-09-20T15:46:03.167Z,20.47
2022-09-20T15:48:30.818Z,19.65
2022-09-20T15:51:05.916Z,19.05
2022-09-20T15:53:55.451Z,18.16
2022-09-20T15:56:25.035Z,17.95
2022-09-20T15:59:00.967Z,17.69
2022-09-20T16:01:33.122Z,17.45
2022-09-20T16:04:00.302Z,17.23
2022-09-20T16:06:27.010Z,17.09
2022-09-20T16:09:03.781Z,17.00
2022-09-20T16:11:31.050Z,16.80
2022-09-20T16:13:59.483Z,16.60
2022-09-20T16:16:28.249Z,16.67
2022-09-20T16:19:14.280Z,17.32
2022-09-20T16:21:42.149Z,18.09
2022-09-20T16:24:10.861Z,17.86
2022-09-20T16:26:38.001Z,17.41
2022-09-20T16:29:06.092Z,16.86
2022-09-20T16:31:43.738Z,16.69
2022-09-20T16:34:31.338Z,16.48
2022-09-20T16:37:01.219Z,15.90
2022-09-20T16:39:30.473Z,15.79
2022-09-20T16:42:04.522Z,15.78
2022-09-20T16:44:33.030Z,15.68
2022-09-20T16:46:59.890Z,15.67
2022-09-20T16:49:28.076Z,15.71
2022-09-20T16:51:55.214Z,15.66
2022-09-20T16:54:22.156Z,15.59
2022-09-20T16:56:50.631Z,15.56
2022-09-20T16:59:24.187Z,15.35
2022-09-20T17:01:51.539Z,15.22
2022-09-20T17:04:21.114Z,15.14
2022-09-20T17:06:49.470Z,15.10
2022-09-20T17:09:17.124Z,15.10
2022-09-20T17:11:50.173Z,15.10
2022-09-20T17:14:19.189Z,15.10
2022-09-20T17:16:49.497Z,15.17
2022-09-20T17:19:21.139Z,15.22
2022-09-20T17:21:50.674Z,15.17
2022-09-20T17:24:20.169Z,15.10
2022-09-20T17:26:47.511Z,14.99
2022-09-20T17:29:17.116Z,14.96
2022-09-20T17:31:51.533Z,14.98
2022-09-20T17:34:22.028Z,14.94
2022-09-20T17:36:50.492Z,14.92
2022-09-20T17:39:18.515Z,14.85
2022-09-20T17:41:49.327Z,14.73
2022-09-20T17:44:16.854Z,14.69
2022-09-20T17:46:49.983Z,14.63
2022-09-20T17:49:21.814Z,14.65
2022-09-20T17:51:53.974Z,14.54
2022-09-20T17:54:22.045Z,14.32
2022-09-20T17:56:51.975Z,14.06
2022-09-20T17:59:20.181Z,13.93
2022-09-20T18:01:49.760Z,13.78
2022-09-20T18:04:16.529Z,13.71
2022-09-20T18:06:49.570Z,13.64
2022-09-20T18:09:18.691Z,13.53
2022-09-20T18:11:50.120Z,13.45
2022-09-20T18:14:23.257Z,13.38
2022-09-20T18:16:56.038Z,13.30
2022-09-20T18:19:22.919Z,13.21
2022-09-20T18:21:50.260Z,13.13
2022-09-20T18:24:17.179Z,13.03
2022-09-20T18:26:44.612Z,12.93
2022-09-20T18:29:18.003Z,12.80
2022-09-20T18:31:48.764Z,12.91
2022-09-20T18:34:18.492Z,12.95
2022-09-20T18:36:55.015Z,12.93
2022-09-20T18:39:28.831Z,12.90
2022-09-20T18:41:56.426Z,12.80
2022-09-20T18:44:23.841Z,12.62
2022-09-20T18:46:55.048Z,12.59
2022-09-20T18:49:22.481Z,12.44
2022-09-20T18:51:49.824Z,12.38
2022-09-20T18:54:17.419Z,12.23
2022-09-20T18:56:46.375Z,12.17
2022-09-20T18:59:18.252Z,12.10
2022-09-20T19:01:51.049Z,12.03
2022-09-20T19:04:52.038Z,11.96
2022-09-20T19:07:28.088Z,11.89
2022-09-20T19:10:06.813Z,11.82
2022-09-20T19:12:52.222Z,11.77
2022-09-20T19:15:58.134Z,11.71
2022-09-20T19:19:01.672Z,11.58
2022-09-20T19:21:45.131Z,11.52
2022-09-20T19:24:33.646Z,11.61
2022-09-20T19:27:00.693Z,11.61
2022-09-20T19:29:28.722Z,11.71
2022-09-20T19:31:59.001Z,11.79
2022-09-20T19:34:31.161Z,11.81
2022-09-20T19:37:18.752Z,11.81
2022-09-20T19:40:16.547Z,11.85
2022-09-20T19:43:23.678Z,11.87
2022-09-20T19:45:55.910Z,11.95
2022-09-20T19:48:48.690Z,11.96
2022-09-20T19:51:17.192Z,12.07
2022-09-20T19:53:44.225Z,12.11
2022-09-20T19:56:25.896Z,12.10
2022-09-20T19:58:56.463Z,12.18
2022-09-20T20:01:25.836Z,12.19
2022-09-20T20:03:53.884Z,12.18
2022-09-20T20:06:26.082Z,12.27
2022-09-20T20:08:59.004Z,12.18
2022-09-20T20:11:50.403Z,12.26
2022-09-20T20:14:28.827Z,12.35
2022-09-20T20:17:01.552Z,12.37
2022-09-20T20:19:47.114Z,12.39
2022-09-20T20:22:34.672Z,12.41
2022-09-20T20:25:01.537Z,12.41
2022-09-20T20:27:28.536Z,12.42
2022-09-20T20:29:56.652Z,12.43
2022-09-20T20:32:24.004Z,12.46
2022-09-20T20:34:50.585Z,12.40
2022-09-20T20:37:18.208Z,12.45
2022-09-20T20:39:44.865Z,12.45
2022-09-20T20:42:12.968Z,12.42
2022-09-20T20:44:40.174Z,12.35
2022-09-20T20:47:07.360Z,12.33
2022-09-20T20:49:34.723Z,12.28
2022-09-20T20:52:04.876Z,12.22
2022-09-20T20:54:32.517Z,12.16
2022-09-20T20:56:59.716Z,12.08
2022-09-20T20:59:26.828Z,12.07
2022-09-20T21:01:53.540Z,12.01
2022-09-20T21:04:21.791Z,11.99
2022-09-20T21:06:50.245Z,11.93
2022-09-20T21:09:16.894Z,11.88
2022-09-20T21:11:44.370Z,11.87
2022-09-20T21:14:13.055Z,11.81
2022-09-20T21:16:45.583Z,11.76
2022-09-20T21:19:15.737Z,11.67
2022-09-20T21:21:44.515Z,11.60
2022-09-20T21:24:15.356Z,11.51
2022-09-20T21:26:42.584Z,11.48
2022-09-20T21:29:15.257Z,11.41
2022-09-20T21:31:43.858Z,11.35
2022-09-20T21:34:12.859Z,11.38
2022-09-20T21:36:41.631Z,11.31
2022-09-20T21:39:09.004Z,11.28
2022-09-20T21:41:37.750Z,11.25
2022-09-20T21:44:06.095Z,11.25
2022-09-20T21:46:39.248Z,11.13
2022-09-20T21:49:10.995Z,11.02
2022-09-20T21:51:39.329Z,10.89
2022-09-20T21:54:06.378Z,10.86
2022-09-20T21:56:38.349Z,10.81
2022-09-20T21:59:06.398Z,10.79
2022-09-20T22:01:39.407Z,10.71
2022-09-20T22:04:09.506Z,10.68
2022-09-20T22:06:42.136Z,10.66
2022-09-20T22:09:17.029Z,10.58
2022-09-20T22:11:46.559Z,10.54
2022-09-20T22:14:16.262Z,10.48
2022-09-20T22:16:44.817Z,10.40
2022-09-20T22:19:14.081Z,10.35
2022-09-20T22:21:45.895Z,10.33
2022-09-20T22:24:13.658Z,10.33
2022-09-20T22:26:48.479Z,10.30
2022-09-20T22:29:15.759Z,10.23
2022-09-20T22:31:47.330Z,10.14
2022-09-20T22:34:25.109Z,10.12
2022-09-20T22:36:52.505Z,9.94
2022-09-20T22:39:19.155Z,9.95
2022-09-20T22:41:48.012Z,9.87
2022-09-20T22:44:15.067Z,9.78
2022-09-20T22:46:42.872Z,9.70
2022-09-20T22:49:09.983Z,9.63
2022-09-20T22:51:37.589Z,9.54
2022-09-20T22:54:08.240Z,9.56
2022-09-20T22:56:44.017Z,9.63
2022-09-20T22:59:14.361Z,9.58
2022-09-20T23:01:43.527Z,9.56
2022-09-20T23:04:28.303Z,9.51
2022-09-20T23:06:55.220Z,9.49
2022-09-20T23:09:26.465Z,9.50
2022-09-20T23:11:53.289Z,9.43
2022-09-20T23:14:21.769Z,9.42
2022-09-20T23:16:49.043Z,9.36
2022-09-20T23:19:16.153Z,9.29
2022-09-20T23:21:43.848Z,9.25
2022-09-20T23:24:12.700Z,9.23
2022-09-20T23:26:41.523Z,9.24
2022-09-20T23:29:13.564Z,9.23
2022-09-20T23:31:45.613Z,9.21
2022-09-20T23:34:13.850Z,9.24
2022-09-20T23:36:41.072Z,9.15
2022-09-20T23:39:09.099Z,9.12
2022-09-20T23:41:36.957Z,9.09
2022-09-20T23:44:06.227Z,9.08
2022-09-20T23:46:33.476Z,9.10
2022-09-20T23:49:00.283Z,9.10
2022-09-20T23:51:28.503Z,9.03
2022-09-20T23:53:55.163Z,8.98
2022-09-20T23:56:22.619Z,8.97
2022-09-20T23:58:50.268Z,8.92
